sensor_id;sensor_type;location;lat;lon;timestamp;P1;durP1;ratioP1;P2;durP2;ratioP2
7645;SDS011;3864;48.180;14.178;2023-06-14T00:01:58;5.68;;;3.50;;
7645;SDS011;3864;48.180;14.178;2023-06-14T00:04:27;7.35;;;3.72;;
7645;SDS011;3864;48.180;14.178;2023-06-14T00:06:55;5.78;;;3.47;;
7645;SDS011;3864;48.180;14.178;2023-06-14T00:09:23;3.55;;;2.90;;
7645;SDS011;3864;48.180;14.178;2023-06-14T00:11:50;6.20;;;3.40;;
7645;SDS011;3864;48.180;14.178;2023-06-14T00:14:18;5.88;;;3.22;;
7645;SDS011;3864;48.180;14.178;2023-06-14T00:16:45;8.95;;;3.90;;
7645;SDS011;3864;48.180;14.178;2023-06-14T00:19:14;4.78;;;3.15;;
7645;SDS011;3864;48.180;14.178;2023-06-14T00:21:46;5.13;;;3.40;;
7645;SDS011;3864;48.180;14.178;2023-06-14T00:24:14;6.15;;;3.72;;
7645;SDS011;3864;48.180;14.178;2023-06-14T00:26:41;7.25;;;3.60;;
7645;SDS011;3864;48.180;14.178;2023-06-14T00:29:08;4.57;;;3.20;;
7645;SDS011;3864;48.180;14.178;2023-06-14T00:31:35;5.20;;;3.40;;
7645;SDS011;3864;48.180;14.178;2023-06-14T00:34:03;5.20;;;3.42;;
7645;SDS011;3864;48.180;14.178;2023-06-14T00:36:30;3.95;;;3.10;;
7645;SDS011;3864;48.180;14.178;2023-06-14T00:38:59;5.47;;;3.45;;
7645;SDS011;3864;48.180;14.178;2023-06-14T00:41:26;5.47;;;3.63;;
7645;SDS011;3864;48.180;14.178;2023-06-14T00:43:54;4.60;;;3.05;;
7645;SDS011;3864;48.180;14.178;2023-06-14T00:46:24;5.43;;;3.15;;
7645;SDS011;3864;48.180;14.178;2023-06-14T00:48:52;5.10;;;4.07;;
7645;SDS011;3864;48.180;14.178;2023-06-14T00:51:21;4.57;;;3.20;;
7645;SDS011;3864;48.180;14.178;2023-06-14T00:53:50;6.30;;;3.80;;
7645;SDS011;3864;48.180;14.178;2023-06-14T00:56:20;5.18;;;3.88;;
7645;SDS011;3864;48.180;14.178;2023-06-14T00:58:48;5.28;;;3.40;;
7645;SDS011;3864;48.180;14.178;2023-06-14T01:01:16;4.90;;;3.42;;
7645;SDS011;3864;48.180;14.178;2023-06-14T01:03:44;4.60;;;3.30;;
7645;SDS011;3864;48.180;14.178;2023-06-14T01:06:15;5.60;;;3.67;;
7645;SDS011;3864;48.180;14.178;2023-06-14T01:11:35;5.38;;;3.67;;
7645;SDS011;3864;48.180;14.178;2023-06-14T01:14:07;6.20;;;3.80;;
7645;SDS011;3864;48.180;14.178;2023-06-14T01:16:35;5.45;;;3.75;;
7645;SDS011;3864;48.180;14.178;2023-06-14T01:19:05;9.57;;;5.28;;
7645;SDS011;3864;48.180;14.178;2023-06-14T01:21:37;4.68;;;3.63;;
7645;SDS011;3864;48.180;14.178;2023-06-14T01:24:09;5.18;;;3.53;;
7645;SDS011;3864;48.180;14.178;2023-06-14T01:26:37;6.80;;;3.42;;
7645;SDS011;3864;48.180;14.178;2023-06-14T01:29:10;4.50;;;3.60;;
7645;SDS011;3864;48.180;14.178;2023-06-14T01:31:42;6.30;;;3.67;;
7645;SDS011;3864;48.180;14.178;2023-06-14T01:34:10;5.38;;;3.72;;
7645;SDS011;3864;48.180;14.178;2023-06-14T01:36:38;5.03;;;3.78;;
7645;SDS011;3864;48.180;14.178;2023-06-14T01:39:12;5.60;;;3.90;;
7645;SDS011;3864;48.180;14.178;2023-06-14T01:41:41;5.25;;;3.70;;
7645;SDS011;3864;48.180;14.178;2023-06-14T01:44:11;6.22;;;3.53;;
7645;SDS011;3864;48.180;14.178;2023-06-14T01:46:40;4.68;;;3.47;;
7645;SDS011;3864;48.180;14.178;2023-06-14T01:49:10;6.10;;;3.65;;
7645;SDS011;3864;48.180;14.178;2023-06-14T01:51:37;5.57;;;3.83;;
7645;SDS011;3864;48.180;14.178;2023-06-14T01:54:05;4.53;;;3.60;;
7645;SDS011;3864;48.180;14.178;2023-06-14T01:56:34;6.53;;;4.00;;
7645;SDS011;3864;48.180;14.178;2023-06-14T01:59:02;5.90;;;4.10;;
7645;SDS011;3864;48.180;14.178;2023-06-14T02:01:30;7.53;;;4.00;;
7645;SDS011;3864;48.180;14.178;2023-06-14T02:03:59;7.20;;;4.50;;
7645;SDS011;3864;48.180;14.178;2023-06-14T02:06:34;6.75;;;3.95;;
7645;SDS011;3864;48.180;14.178;2023-06-14T02:09:02;5.10;;;3.92;;
7645;SDS011;3864;48.180;14.178;2023-06-14T02:11:31;5.63;;;4.03;;
7645;SDS011;3864;48.180;14.178;2023-06-14T02:14:01;7.05;;;4.30;;
7645;SDS011;3864;48.180;14.178;2023-06-14T02:16:28;5.35;;;4.03;;
7645;SDS011;3864;48.180;14.178;2023-06-14T02:18:55;7.63;;;4.15;;
7645;SDS011;3864;48.180;14.178;2023-06-14T02:21:23;6.60;;;4.25;;
7645;SDS011;3864;48.180;14.178;2023-06-14T02:23:51;6.65;;;4.20;;
7645;SDS011;3864;48.180;14.178;2023-06-14T02:26:18;7.97;;;4.38;;
7645;SDS011;3864;48.180;14.178;2023-06-14T02:28:46;5.30;;;3.83;;
7645;SDS011;3864;48.180;14.178;2023-06-14T02:31:15;7.95;;;4.43;;
7645;SDS011;3864;48.180;14.178;2023-06-14T02:33:42;7.13;;;4.32;;
7645;SDS011;3864;48.180;14.178;2023-06-14T02:36:10;6.50;;;4.05;;
7645;SDS011;3864;48.180;14.178;2023-06-14T02:38:37;6.03;;;4.40;;
7645;SDS011;3864;48.180;14.178;2023-06-14T02:41:06;7.57;;;4.65;;
7645;SDS011;3864;48.180;14.178;2023-06-14T02:43:34;6.25;;;4.32;;
7645;SDS011;3864;48.180;14.178;2023-06-14T02:46:03;6.80;;;4.28;;
7645;SDS011;3864;48.180;14.178;2023-06-14T02:48:32;6.45;;;4.63;;
7645;SDS011;3864;48.180;14.178;2023-06-14T02:50:59;7.07;;;4.90;;
7645;SDS011;3864;48.180;14.178;2023-06-14T02:53:27;5.65;;;4.03;;
7645;SDS011;3864;48.180;14.178;2023-06-14T02:55:54;6.32;;;4.20;;
7645;SDS011;3864;48.180;14.178;2023-06-14T02:58:22;7.22;;;4.25;;
7645;SDS011;3864;48.180;14.178;2023-06-14T03:00:50;6.47;;;4.60;;
7645;SDS011;3864;48.180;14.178;2023-06-14T03:03:18;6.70;;;4.32;;
7645;SDS011;3864;48.180;14.178;2023-06-14T03:05:48;6.63;;;3.95;;
7645;SDS011;3864;48.180;14.178;2023-06-14T03:08:16;6.88;;;4.28;;
7645;SDS011;3864;48.180;14.178;2023-06-14T03:10:45;6.07;;;4.07;;
7645;SDS011;3864;48.180;14.178;2023-06-14T03:13:13;6.40;;;4.25;;
7645;SDS011;3864;48.180;14.178;2023-06-14T03:15:41;6.68;;;4.72;;
7645;SDS011;3864;48.180;14.178;2023-06-14T03:18:10;5.90;;;4.13;;
7645;SDS011;3864;48.180;14.178;2023-06-14T03:20:37;7.35;;;4.85;;
7645;SDS011;3864;48.180;14.178;2023-06-14T03:23:08;7.45;;;4.10;;
7645;SDS011;3864;48.180;14.178;2023-06-14T03:25:35;5.65;;;4.30;;
7645;SDS011;3864;48.180;14.178;2023-06-14T03:28:03;5.85;;;4.50;;
7645;SDS011;3864;48.180;14.178;2023-06-14T03:30:31;7.30;;;4.65;;
7645;SDS011;3864;48.180;14.178;2023-06-14T03:32:58;7.15;;;4.93;;
7645;SDS011;3864;48.180;14.178;2023-06-14T03:35:28;8.27;;;4.70;;
7645;SDS011;3864;48.180;14.178;2023-06-14T03:37:56;6.55;;;4.25;;
7645;SDS011;3864;48.180;14.178;2023-06-14T03:40:26;6.55;;;4.30;;
7645;SDS011;3864;48.180;14.178;2023-06-14T03:42:53;6.75;;;4.85;;
7645;SDS011;3864;48.180;14.178;2023-06-14T03:45:21;6.60;;;4.50;;
7645;SDS011;3864;48.180;14.178;2023-06-14T03:47:48;6.30;;;4.50;;
7645;SDS011;3864;48.180;14.178;2023-06-14T03:50:16;6.65;;;4.57;;
7645;SDS011;3864;48.180;14.178;2023-06-14T03:52:44;7.13;;;4.50;;
7645;SDS011;3864;48.180;14.178;2023-06-14T03:55:13;6.55;;;4.93;;
7645;SDS011;3864;48.180;14.178;2023-06-14T03:57:43;7.63;;;5.03;;
7645;SDS011;3864;48.180;14.178;2023-06-14T04:00:10;7.07;;;4.55;;
7645;SDS011;3864;48.180;14.178;2023-06-14T04:02:39;7.70;;;4.78;;
7645;SDS011;3864;48.180;14.178;2023-06-14T04:05:07;6.05;;;4.55;;
7645;SDS011;3864;48.180;14.178;2023-06-14T04:07:34;6.95;;;4.40;;
7645;SDS011;3864;48.180;14.178;2023-06-14T04:10:05;6.65;;;4.70;;
7645;SDS011;3864;48.180;14.178;2023-06-14T04:12:34;6.68;;;4.70;;
7645;SDS011;3864;48.180;14.178;2023-06-14T04:15:04;8.18;;;4.55;;
7645;SDS011;3864;48.180;14.178;2023-06-14T04:17:33;5.90;;;4.30;;
7645;SDS011;3864;48.180;14.178;2023-06-14T04:20:02;7.13;;;4.20;;
7645;SDS011;3864;48.180;14.178;2023-06-14T04:22:31;8.15;;;4.85;;
7645;SDS011;3864;48.180;14.178;2023-06-14T04:24:59;7.50;;;4.70;;
7645;SDS011;3864;48.180;14.178;2023-06-14T04:27:27;7.43;;;5.68;;
7645;SDS011;3864;48.180;14.178;2023-06-14T04:29:59;6.57;;;4.82;;
7645;SDS011;3864;48.180;14.178;2023-06-14T04:32:29;6.50;;;4.60;;
7645;SDS011;3864;48.180;14.178;2023-06-14T04:34:58;8.60;;;5.10;;
7645;SDS011;3864;48.180;14.178;2023-06-14T04:37:27;6.53;;;4.32;;
7645;SDS011;3864;48.180;14.178;2023-06-14T04:39:55;5.13;;;4.00;;
7645;SDS011;3864;48.180;14.178;2023-06-14T04:42:24;6.35;;;4.40;;
7645;SDS011;3864;48.180;14.178;2023-06-14T04:44:56;5.57;;;4.00;;
7645;SDS011;3864;48.180;14.178;2023-06-14T04:47:23;5.18;;;3.90;;
7645;SDS011;3864;48.180;14.178;2023-06-14T04:49:57;5.05;;;3.92;;
7645;SDS011;3864;48.180;14.178;2023-06-14T04:52:25;7.13;;;3.95;;
7645;SDS011;3864;48.180;14.178;2023-06-14T04:54:54;5.43;;;3.60;;
7645;SDS011;3864;48.180;14.178;2023-06-14T04:57:23;5.72;;;4.35;;
7645;SDS011;3864;48.180;14.178;2023-06-14T04:59:50;5.40;;;3.40;;
7645;SDS011;3864;48.180;14.178;2023-06-14T05:02:20;7.05;;;4.20;;
7645;SDS011;3864;48.180;14.178;2023-06-14T05:04:48;5.50;;;3.80;;
7645;SDS011;3864;48.180;14.178;2023-06-14T05:07:17;6.57;;;4.00;;
7645;SDS011;3864;48.180;14.178;2023-06-14T05:09:45;6.13;;;3.95;;
7645;SDS011;3864;48.180;14.178;2023-06-14T05:12:13;6.82;;;4.00;;
7645;SDS011;3864;48.180;14.178;2023-06-14T05:14:43;4.90;;;3.53;;
7645;SDS011;3864;48.180;14.178;2023-06-14T05:17:10;6.72;;;4.20;;
7645;SDS011;3864;48.180;14.178;2023-06-14T05:19:38;4.95;;;3.63;;
7645;SDS011;3864;48.180;14.178;2023-06-14T05:22:06;7.80;;;4.07;;
7645;SDS011;3864;48.180;14.178;2023-06-14T05:24:38;5.85;;;3.90;;
7645;SDS011;3864;48.180;14.178;2023-06-14T05:27:06;5.18;;;3.63;;
7645;SDS011;3864;48.180;14.178;2023-06-14T05:29:35;7.35;;;4.18;;
7645;SDS011;3864;48.180;14.178;2023-06-14T05:32:03;6.07;;;4.15;;
7645;SDS011;3864;48.180;14.178;2023-06-14T05:34:31;5.35;;;4.18;;
7645;SDS011;3864;48.180;14.178;2023-06-14T05:36:59;5.28;;;3.83;;
7645;SDS011;3864;48.180;14.178;2023-06-14T05:39:29;6.35;;;4.18;;
7645;SDS011;3864;48.180;14.178;2023-06-14T05:41:58;6.18;;;4.05;;
7645;SDS011;3864;48.180;14.178;2023-06-14T05:44:25;7.63;;;4.05;;
7645;SDS011;3864;48.180;14.178;2023-06-14T05:47:06;6.82;;;3.92;;
7645;SDS011;3864;48.180;14.178;2023-06-14T05:49:34;5.75;;;4.07;;
7645;SDS011;3864;48.180;14.178;2023-06-14T05:52:01;6.03;;;4.25;;
7645;SDS011;3864;48.180;14.178;2023-06-14T05:54:30;8.25;;;4.47;;
7645;SDS011;3864;48.180;14.178;2023-06-14T05:56:58;7.32;;;4.10;;
7645;SDS011;3864;48.180;14.178;2023-06-14T05:59:26;7.28;;;4.00;;
7645;SDS011;3864;48.180;14.178;2023-06-14T06:01:55;6.38;;;4.43;;
7645;SDS011;3864;48.180;14.178;2023-06-14T06:04:23;6.35;;;4.45;;
7645;SDS011;3864;48.180;14.178;2023-06-14T06:06:50;6.95;;;4.72;;
7645;SDS011;3864;48.180;14.178;2023-06-14T06:09:18;5.60;;;4.55;;
7645;SDS011;3864;48.180;14.178;2023-06-14T06:12:00;4.47;;;3.88;;
7645;SDS011;3864;48.180;14.178;2023-06-14T06:14:28;4.95;;;3.63;;
7645;SDS011;3864;48.180;14.178;2023-06-14T06:16:56;18.60;;;4.60;;
7645;SDS011;3864;48.180;14.178;2023-06-14T06:19:23;5.90;;;4.65;;
7645;SDS011;3864;48.180;14.178;2023-06-14T06:21:51;5.53;;;4.20;;
7645;SDS011;3864;48.180;14.178;2023-06-14T06:24:18;6.78;;;4.45;;
7645;SDS011;3864;48.180;14.178;2023-06-14T06:26:45;7.07;;;4.88;;
7645;SDS011;3864;48.180;14.178;2023-06-14T06:29:15;5.05;;;4.55;;
7645;SDS011;3864;48.180;14.178;2023-06-14T06:31:42;7.38;;;4.40;;
7645;SDS011;3864;48.180;14.178;2023-06-14T06:34:10;9.25;;;5.05;;
7645;SDS011;3864;48.180;14.178;2023-06-14T06:36:38;6.97;;;5.10;;
7645;SDS011;3864;48.180;14.178;2023-06-14T06:39:06;7.63;;;4.88;;
7645;SDS011;3864;48.180;14.178;2023-06-14T06:41:35;5.35;;;4.53;;
7645;SDS011;3864;48.180;14.178;2023-06-14T06:44:05;7.50;;;4.50;;
7645;SDS011;3864;48.180;14.178;2023-06-14T06:46:36;6.40;;;5.00;;
7645;SDS011;3864;48.180;14.178;2023-06-14T06:49:06;7.75;;;4.30;;
7645;SDS011;3864;48.180;14.178;2023-06-14T06:51:34;7.10;;;4.90;;
7645;SDS011;3864;48.180;14.178;2023-06-14T06:54:02;6.82;;;3.85;;
7645;SDS011;3864;48.180;14.178;2023-06-14T06:56:31;4.80;;;3.90;;
7645;SDS011;3864;48.180;14.178;2023-06-14T06:58:58;5.15;;;4.07;;
7645;SDS011;3864;48.180;14.178;2023-06-14T07:01:25;5.43;;;3.50;;
7645;SDS011;3864;48.180;14.178;2023-06-14T07:03:55;7.32;;;4.35;;
7645;SDS011;3864;48.180;14.178;2023-06-14T07:06:22;6.00;;;3.95;;
7645;SDS011;3864;48.180;14.178;2023-06-14T07:08:52;4.82;;;3.60;;
7645;SDS011;3864;48.180;14.178;2023-06-14T07:11:19;6.35;;;4.30;;
7645;SDS011;3864;48.180;14.178;2023-06-14T07:13:47;5.15;;;3.78;;
7645;SDS011;3864;48.180;14.178;2023-06-14T07:16:14;5.50;;;3.97;;
7645;SDS011;3864;48.180;14.178;2023-06-14T07:18:42;5.28;;;4.20;;
7645;SDS011;3864;48.180;14.178;2023-06-14T07:21:11;7.55;;;4.85;;
7645;SDS011;3864;48.180;14.178;2023-06-14T07:23:38;6.05;;;4.38;;
7645;SDS011;3864;48.180;14.178;2023-06-14T07:26:06;6.38;;;4.32;;
7645;SDS011;3864;48.180;14.178;2023-06-14T07:28:33;5.93;;;4.60;;
7645;SDS011;3864;48.180;14.178;2023-06-14T07:31:00;6.63;;;3.60;;
7645;SDS011;3864;48.180;14.178;2023-06-14T07:33:28;5.05;;;4.10;;
7645;SDS011;3864;48.180;14.178;2023-06-14T07:35:56;7.00;;;4.80;;
7645;SDS011;3864;48.180;14.178;2023-06-14T07:38:31;6.10;;;4.47;;
7645;SDS011;3864;48.180;14.178;2023-06-14T07:40:59;6.05;;;4.10;;
7645;SDS011;3864;48.180;14.178;2023-06-14T07:43:26;7.15;;;4.07;;
7645;SDS011;3864;48.180;14.178;2023-06-14T07:45:54;5.70;;;3.83;;
7645;SDS011;3864;48.180;14.178;2023-06-14T07:48:23;6.47;;;4.53;;
7645;SDS011;3864;48.180;14.178;2023-06-14T07:50:51;7.65;;;4.22;;
7645;SDS011;3864;48.180;14.178;2023-06-14T07:53:18;5.45;;;4.28;;
7645;SDS011;3864;48.180;14.178;2023-06-14T07:55:47;8.57;;;5.45;;
7645;SDS011;3864;48.180;14.178;2023-06-14T07:58:15;6.60;;;4.70;;
7645;SDS011;3864;48.180;14.178;2023-06-14T08:00:43;5.57;;;4.07;;
7645;SDS011;3864;48.180;14.178;2023-06-14T08:03:11;6.50;;;4.40;;
7645;SDS011;3864;48.180;14.178;2023-06-14T08:05:39;5.78;;;3.75;;
7645;SDS011;3864;48.180;14.178;2023-06-14T08:08:06;7.00;;;4.30;;
7645;SDS011;3864;48.180;14.178;2023-06-14T08:10:34;6.70;;;3.72;;
7645;SDS011;3864;48.180;14.178;2023-06-14T08:13:04;5.28;;;3.95;;
7645;SDS011;3864;48.180;14.178;2023-06-14T08:15:32;8.27;;;4.30;;
7645;SDS011;3864;48.180;14.178;2023-06-14T08:17:59;5.45;;;4.53;;
7645;SDS011;3864;48.180;14.178;2023-06-14T08:20:29;5.72;;;4.15;;
7645;SDS011;3864;48.180;14.178;2023-06-14T08:22:57;7.10;;;4.90;;
7645;SDS011;3864;48.180;14.178;2023-06-14T08:25:24;7.07;;;4.80;;
7645;SDS011;3864;48.180;14.178;2023-06-14T08:27:52;7.10;;;3.92;;
7645;SDS011;3864;48.180;14.178;2023-06-14T08:30:21;5.30;;;4.20;;
7645;SDS011;3864;48.180;14.178;2023-06-14T08:32:49;6.30;;;4.50;;
7645;SDS011;3864;48.180;14.178;2023-06-14T08:35:16;5.63;;;4.60;;
7645;SDS011;3864;48.180;14.178;2023-06-14T08:37:44;7.00;;;4.57;;
7645;SDS011;3864;48.180;14.178;2023-06-14T08:40:16;7.40;;;4.50;;
7645;SDS011;3864;48.180;14.178;2023-06-14T08:42:50;6.05;;;4.80;;
7645;SDS011;3864;48.180;14.178;2023-06-14T08:45:22;7.10;;;4.45;;
7645;SDS011;3864;48.180;14.178;2023-06-14T08:47:50;6.15;;;4.47;;
7645;SDS011;3864;48.180;14.178;2023-06-14T08:50:23;5.93;;;4.35;;
7645;SDS011;3864;48.180;14.178;2023-06-14T08:52:52;5.32;;;4.03;;
7645;SDS011;3864;48.180;14.178;2023-06-14T08:55:22;5.72;;;4.00;;
7645;SDS011;3864;48.180;14.178;2023-06-14T08:57:58;5.28;;;4.03;;
7645;SDS011;3864;48.180;14.178;2023-06-14T09:00:27;6.15;;;4.78;;
7645;SDS011;3864;48.180;14.178;2023-06-14T09:02:54;6.22;;;4.20;;
7645;SDS011;3864;48.180;14.178;2023-06-14T09:05:23;6.28;;;3.88;;
7645;SDS011;3864;48.180;14.178;2023-06-14T09:07:50;5.88;;;4.00;;
7645;SDS011;3864;48.180;14.178;2023-06-14T09:10:20;4.90;;;3.88;;
7645;SDS011;3864;48.180;14.178;2023-06-14T09:12:48;5.88;;;3.95;;
7645;SDS011;3864;48.180;14.178;2023-06-14T09:15:15;4.68;;;3.75;;
7645;SDS011;3864;48.180;14.178;2023-06-14T09:17:43;4.60;;;3.55;;
7645;SDS011;3864;48.180;14.178;2023-06-14T09:20:11;5.65;;;4.07;;
7645;SDS011;3864;48.180;14.178;2023-06-14T09:22:43;5.50;;;3.65;;
7645;SDS011;3864;48.180;14.178;2023-06-14T09:25:10;5.28;;;3.80;;
7645;SDS011;3864;48.180;14.178;2023-06-14T09:27:51;4.78;;;3.33;;
7645;SDS011;3864;48.180;14.178;2023-06-14T09:30:21;4.68;;;3.53;;
7645;SDS011;3864;48.180;14.178;2023-06-14T09:35:50;4.50;;;3.60;;
7645;SDS011;3864;48.180;14.178;2023-06-14T09:38:19;5.28;;;4.07;;
7645;SDS011;3864;48.180;14.178;2023-06-14T09:40:51;6.13;;;3.63;;
7645;SDS011;3864;48.180;14.178;2023-06-14T09:43:20;4.68;;;3.60;;
7645;SDS011;3864;48.180;14.178;2023-06-14T09:45:52;4.47;;;3.72;;
7645;SDS011;3864;48.180;14.178;2023-06-14T09:48:23;4.60;;;3.40;;
7645;SDS011;3864;48.180;14.178;2023-06-14T09:50:53;5.97;;;3.50;;
7645;SDS011;3864;48.180;14.178;2023-06-14T09:53:23;5.47;;;3.90;;
7645;SDS011;3864;48.180;14.178;2023-06-14T09:55:52;5.50;;;4.13;;
7645;SDS011;3864;48.180;14.178;2023-06-14T09:58:23;4.15;;;3.40;;
7645;SDS011;3864;48.180;14.178;2023-06-14T10:00:54;5.78;;;3.60;;
7645;SDS011;3864;48.180;14.178;2023-06-14T10:03:27;5.18;;;3.33;;
7645;SDS011;3864;48.180;14.178;2023-06-14T10:05:55;4.05;;;3.30;;
7645;SDS011;3864;48.180;14.178;2023-06-14T10:08:30;4.68;;;3.40;;
7645;SDS011;3864;48.180;14.178;2023-06-14T10:11:02;5.00;;;3.25;;
7645;SDS011;3864;48.180;14.178;2023-06-14T10:13:33;4.63;;;3.50;;
7645;SDS011;3864;48.180;14.178;2023-06-14T10:16:05;4.65;;;3.28;;
7645;SDS011;3864;48.180;14.178;2023-06-14T10:21:41;8.90;;;3.35;;
7645;SDS011;3864;48.180;14.178;2023-06-14T10:24:15;6.80;;;3.10;;
7645;SDS011;3864;48.180;14.178;2023-06-14T10:26:51;5.55;;;3.40;;
7645;SDS011;3864;48.180;14.178;2023-06-14T10:29:20;6.53;;;3.45;;
7645;SDS011;3864;48.180;14.178;2023-06-14T10:31:48;6.22;;;3.58;;
7645;SDS011;3864;48.180;14.178;2023-06-14T10:34:24;6.65;;;3.60;;
7645;SDS011;3864;48.180;14.178;2023-06-14T10:37:02;4.40;;;3.50;;
7645;SDS011;3864;48.180;14.178;2023-06-14T10:39:45;4.93;;;3.30;;
7645;SDS011;3864;48.180;14.178;2023-06-14T10:42:12;5.13;;;4.03;;
7645;SDS011;3864;48.180;14.178;2023-06-14T10:44:42;5.28;;;3.65;;
7645;SDS011;3864;48.180;14.178;2023-06-14T10:49:55;4.82;;;3.42;;
7645;SDS011;3864;48.180;14.178;2023-06-14T10:52:25;5.28;;;3.40;;
7645;SDS011;3864;48.180;14.178;2023-06-14T10:57:40;6.10;;;3.30;;
7645;SDS011;3864;48.180;14.178;2023-06-14T11:00:09;3.97;;;3.03;;
7645;SDS011;3864;48.180;14.178;2023-06-14T11:06:14;4.65;;;3.40;;
7645;SDS011;3864;48.180;14.178;2023-06-14T11:08:56;4.53;;;3.05;;
7645;SDS011;3864;48.180;14.178;2023-06-14T11:11:46;5.45;;;3.30;;
7645;SDS011;3864;48.180;14.178;2023-06-14T11:14:15;5.13;;;3.33;;
7645;SDS011;3864;48.180;14.178;2023-06-14T11:16:47;4.72;;;3.00;;
7645;SDS011;3864;48.180;14.178;2023-06-14T11:19:14;5.47;;;3.40;;
7645;SDS011;3864;48.180;14.178;2023-06-14T11:21:46;4.75;;;3.08;;
7645;SDS011;3864;48.180;14.178;2023-06-14T11:24:14;4.18;;;3.35;;
7645;SDS011;3864;48.180;14.178;2023-06-14T11:26:42;5.25;;;3.50;;
7645;SDS011;3864;48.180;14.178;2023-06-14T11:29:09;5.50;;;3.10;;
7645;SDS011;3864;48.180;14.178;2023-06-14T11:31:37;4.22;;;3.22;;
7645;SDS011;3864;48.180;14.178;2023-06-14T11:34:09;4.70;;;3.30;;
7645;SDS011;3864;48.180;14.178;2023-06-14T11:36:38;4.10;;;3.38;;
7645;SDS011;3864;48.180;14.178;2023-06-14T11:39:07;4.95;;;3.17;;
7645;SDS011;3864;48.180;14.178;2023-06-14T11:41:36;4.53;;;3.40;;
7645;SDS011;3864;48.180;14.178;2023-06-14T11:44:07;4.03;;;3.40;;
7645;SDS011;3864;48.180;14.178;2023-06-14T11:46:34;4.22;;;3.00;;
7645;SDS011;3864;48.180;14.178;2023-06-14T11:49:03;6.18;;;3.47;;
7645;SDS011;3864;48.180;14.178;2023-06-14T11:51:32;5.07;;;3.65;;
7645;SDS011;3864;48.180;14.178;2023-06-14T11:54:00;5.47;;;3.25;;
7645;SDS011;3864;48.180;14.178;2023-06-14T11:56:31;4.53;;;3.50;;
7645;SDS011;3864;48.180;14.178;2023-06-14T11:58:58;4.15;;;3.20;;
7645;SDS011;3864;48.180;14.178;2023-06-14T12:01:26;6.47;;;3.03;;
7645;SDS011;3864;48.180;14.178;2023-06-14T12:03:54;4.95;;;3.45;;
7645;SDS011;3864;48.180;14.178;2023-06-14T12:06:27;5.80;;;3.15;;
7645;SDS011;3864;48.180;14.178;2023-06-14T12:08:58;5.45;;;3.33;;
7645;SDS011;3864;48.180;14.178;2023-06-14T12:11:41;5.43;;;3.33;;
7645;SDS011;3864;48.180;14.178;2023-06-14T12:14:08;5.22;;;3.20;;
7645;SDS011;3864;48.180;14.178;2023-06-14T12:16:37;5.13;;;3.70;;
7645;SDS011;3864;48.180;14.178;2023-06-14T12:19:12;4.63;;;3.50;;
7645;SDS011;3864;48.180;14.178;2023-06-14T12:21:40;6.18;;;3.30;;
7645;SDS011;3864;48.180;14.178;2023-06-14T12:24:09;6.30;;;3.75;;
7645;SDS011;3864;48.180;14.178;2023-06-14T12:26:38;4.68;;;3.65;;
7645;SDS011;3864;48.180;14.178;2023-06-14T12:29:08;5.97;;;4.18;;
7645;SDS011;3864;48.180;14.178;2023-06-14T12:31:37;6.25;;;3.70;;
7645;SDS011;3864;48.180;14.178;2023-06-14T12:34:06;6.15;;;3.80;;
7645;SDS011;3864;48.180;14.178;2023-06-14T12:36:35;10.18;;;4.40;;
7645;SDS011;3864;48.180;14.178;2023-06-14T12:39:06;5.72;;;3.55;;
7645;SDS011;3864;48.180;14.178;2023-06-14T12:41:35;5.25;;;3.63;;
7645;SDS011;3864;48.180;14.178;2023-06-14T12:44:05;5.00;;;3.42;;
7645;SDS011;3864;48.180;14.178;2023-06-14T12:46:32;4.72;;;3.70;;
7645;SDS011;3864;48.180;14.178;2023-06-14T12:49:00;4.95;;;3.40;;
7645;SDS011;3864;48.180;14.178;2023-06-14T12:51:27;5.72;;;3.88;;
7645;SDS011;3864;48.180;14.178;2023-06-14T12:53:54;5.47;;;3.40;;
7645;SDS011;3864;48.180;14.178;2023-06-14T12:56:22;5.45;;;3.55;;
7645;SDS011;3864;48.180;14.178;2023-06-14T12:58:49;4.88;;;3.50;;
7645;SDS011;3864;48.180;14.178;2023-06-14T13:01:19;4.88;;;3.22;;
7645;SDS011;3864;48.180;14.178;2023-06-14T13:03:46;4.55;;;3.38;;
7645;SDS011;3864;48.180;14.178;2023-06-14T13:06:16;6.30;;;3.83;;
7645;SDS011;3864;48.180;14.178;2023-06-14T13:08:45;5.00;;;4.05;;
7645;SDS011;3864;48.180;14.178;2023-06-14T13:11:12;6.65;;;3.90;;
7645;SDS011;3864;48.180;14.178;2023-06-14T13:13:39;6.78;;;3.83;;
7645;SDS011;3864;48.180;14.178;2023-06-14T13:16:07;6.85;;;4.05;;
7645;SDS011;3864;48.180;14.178;2023-06-14T13:18:37;5.07;;;3.60;;
7645;SDS011;3864;48.180;14.178;2023-06-14T13:21:04;4.90;;;3.72;;
7645;SDS011;3864;48.180;14.178;2023-06-14T13:23:32;5.90;;;3.60;;
7645;SDS011;3864;48.180;14.178;2023-06-14T13:25:59;4.25;;;3.28;;
7645;SDS011;3864;48.180;14.178;2023-06-14T13:28:26;3.95;;;3.00;;
7645;SDS011;3864;48.180;14.178;2023-06-14T13:30:54;4.75;;;3.03;;
7645;SDS011;3864;48.180;14.178;2023-06-14T13:33:22;4.68;;;3.28;;
7645;SDS011;3864;48.180;14.178;2023-06-14T13:35:51;4.63;;;3.05;;
7645;SDS011;3864;48.180;14.178;2023-06-14T13:38:19;4.30;;;3.60;;
7645;SDS011;3864;48.180;14.178;2023-06-14T13:40:46;4.00;;;3.20;;
7645;SDS011;3864;48.180;14.178;2023-06-14T13:43:13;3.65;;;3.03;;
7645;SDS011;3864;48.180;14.178;2023-06-14T13:45:41;4.40;;;3.17;;
7645;SDS011;3864;48.180;14.178;2023-06-14T13:48:08;8.25;;;2.95;;
7645;SDS011;3864;48.180;14.178;2023-06-14T13:50:35;3.92;;;3.08;;
7645;SDS011;3864;48.180;14.178;2023-06-14T13:53:05;4.53;;;2.85;;
7645;SDS011;3864;48.180;14.178;2023-06-14T13:55:32;3.40;;;2.90;;
7645;SDS011;3864;48.180;14.178;2023-06-14T13:58:00;4.50;;;3.08;;
7645;SDS011;3864;48.180;14.178;2023-06-14T14:00:27;4.70;;;3.00;;
7645;SDS011;3864;48.180;14.178;2023-06-14T14:02:54;6.35;;;3.70;;
7645;SDS011;3864;48.180;14.178;2023-06-14T14:05:22;3.80;;;3.30;;
7645;SDS011;3864;48.180;14.178;2023-06-14T14:07:53;5.38;;;3.55;;
7645;SDS011;3864;48.180;14.178;2023-06-14T14:10:23;4.85;;;3.25;;
7645;SDS011;3864;48.180;14.178;2023-06-14T14:12:51;6.10;;;3.75;;
7645;SDS011;3864;48.180;14.178;2023-06-14T14:15:19;4.30;;;3.28;;
7645;SDS011;3864;48.180;14.178;2023-06-14T14:17:47;3.85;;;3.05;;
7645;SDS011;3864;48.180;14.178;2023-06-14T14:20:15;5.20;;;3.72;;
7645;SDS011;3864;48.180;14.178;2023-06-14T14:22:42;4.32;;;3.33;;
7645;SDS011;3864;48.180;14.178;2023-06-14T14:25:10;4.43;;;2.90;;
7645;SDS011;3864;48.180;14.178;2023-06-14T14:27:39;6.03;;;3.50;;
7645;SDS011;3864;48.180;14.178;2023-06-14T14:30:07;5.32;;;3.38;;
7645;SDS011;3864;48.180;14.178;2023-06-14T14:32:35;5.65;;;3.28;;
7645;SDS011;3864;48.180;14.178;2023-06-14T14:35:02;4.22;;;3.50;;
7645;SDS011;3864;48.180;14.178;2023-06-14T14:37:30;3.88;;;3.08;;
7645;SDS011;3864;48.180;14.178;2023-06-14T14:39:57;4.28;;;3.13;;
7645;SDS011;3864;48.180;14.178;2023-06-14T14:42:24;3.80;;;3.33;;
7645;SDS011;3864;48.180;14.178;2023-06-14T14:44:54;5.03;;;3.50;;
7645;SDS011;3864;48.180;14.178;2023-06-14T14:47:22;4.53;;;3.28;;
7645;SDS011;3864;48.180;14.178;2023-06-14T14:49:49;4.40;;;3.20;;
7645;SDS011;3864;48.180;14.178;2023-06-14T14:52:16;5.18;;;3.70;;
7645;SDS011;3864;48.180;14.178;2023-06-14T14:54:44;3.95;;;3.13;;
7645;SDS011;3864;48.180;14.178;2023-06-14T14:57:11;6.15;;;3.22;;
7645;SDS011;3864;48.180;14.178;2023-06-14T14:59:38;5.30;;;3.30;;
7645;SDS011;3864;48.180;14.178;2023-06-14T15:02:07;4.20;;;3.20;;
7645;SDS011;3864;48.180;14.178;2023-06-14T15:04:35;4.85;;;3.40;;
7645;SDS011;3864;48.180;14.178;2023-06-14T15:07:03;4.78;;;3.20;;
7645;SDS011;3864;48.180;14.178;2023-06-14T15:09:31;4.85;;;3.28;;
7645;SDS011;3864;48.180;14.178;2023-06-14T15:11:58;4.28;;;3.20;;
7645;SDS011;3864;48.180;14.178;2023-06-14T15:14:25;4.57;;;3.20;;
7645;SDS011;3864;48.180;14.178;2023-06-14T15:16:53;4.85;;;3.17;;
7645;SDS011;3864;48.180;14.178;2023-06-14T15:19:22;4.68;;;3.30;;
7645;SDS011;3864;48.180;14.178;2023-06-14T15:21:50;6.32;;;3.20;;
7645;SDS011;3864;48.180;14.178;2023-06-14T15:24:17;4.57;;;3.17;;
7645;SDS011;3864;48.180;14.178;2023-06-14T15:26:45;4.07;;;3.30;;
7645;SDS011;3864;48.180;14.178;2023-06-14T15:29:12;6.03;;;3.47;;